sensor_id;sensor_type;location;lat;lon;timestamp;P1;durP1;ratioP1;P2;durP2;ratioP2
84877;SDS011;75140;47.754;8.840;2024-03-02T00:00:19;53.80;;;15.80;;
84877;SDS011;75140;47.754;8.840;2024-03-02T00:02:48;35.42;;;14.52;;
84877;SDS011;75140;47.754;8.840;2024-03-02T00:05:15;28.58;;;13.65;;
84877;SDS011;75140;47.754;8.840;2024-03-02T00:07:42;26.13;;;12.85;;
84877;SDS011;75140;47.754;8.840;2024-03-02T00:10:09;31.75;;;15.07;;
84877;SDS011;75140;47.754;8.840;2024-03-02T00:12:37;33.13;;;17.00;;
84877;SDS011;75140;47.754;8.840;2024-03-02T00:15:28;36.83;;;15.35;;
84877;SDS011;75140;47.754;8.840;2024-03-02T00:18:04;33.95;;;14.10;;
84877;SDS011;75140;47.754;8.840;2024-03-02T00:20:30;35.08;;;15.82;;
84877;SDS011;75140;47.754;8.840;2024-03-02T00:23:06;31.90;;;15.93;;
84877;SDS011;75140;47.754;8.840;2024-03-02T00:25:36;30.83;;;16.38;;
84877;SDS011;75140;47.754;8.840;2024-03-02T00:33:15;36.05;;;16.83;;
84877;SDS011;75140;47.754;8.840;2024-03-02T00:35:43;33.30;;;16.20;;
84877;SDS011;75140;47.754;8.840;2024-03-02T00:38:09;42.63;;;16.45;;
84877;SDS011;75140;47.754;8.840;2024-03-02T00:40:35;36.30;;;16.05;;
84877;SDS011;75140;47.754;8.840;2024-03-02T00:43:01;32.63;;;15.02;;
84877;SDS011;75140;47.754;8.840;2024-03-02T00:45:28;41.28;;;17.10;;
84877;SDS011;75140;47.754;8.840;2024-03-02T00:47:53;43.25;;;17.38;;
84877;SDS011;75140;47.754;8.840;2024-03-02T00:50:19;40.47;;;17.90;;
84877;SDS011;75140;47.754;8.840;2024-03-02T00:52:45;37.70;;;15.93;;
84877;SDS011;75140;47.754;8.840;2024-03-02T00:55:13;38.65;;;18.92;;
84877;SDS011;75140;47.754;8.840;2024-03-02T00:57:39;38.90;;;17.35;;
84877;SDS011;75140;47.754;8.840;2024-03-02T01:00:04;36.97;;;15.97;;
84877;SDS011;75140;47.754;8.840;2024-03-02T01:02:34;37.10;;;15.40;;
84877;SDS011;75140;47.754;8.840;2024-03-02T01:05:00;34.17;;;16.80;;
84877;SDS011;75140;47.754;8.840;2024-03-02T01:07:25;43.72;;;16.88;;
84877;SDS011;75140;47.754;8.840;2024-03-02T01:09:51;35.92;;;16.92;;
84877;SDS011;75140;47.754;8.840;2024-03-02T01:12:16;38.53;;;17.50;;
84877;SDS011;75140;47.754;8.840;2024-03-02T01:14:41;43.10;;;18.38;;
84877;SDS011;75140;47.754;8.840;2024-03-02T01:17:07;41.75;;;17.05;;
84877;SDS011;75140;47.754;8.840;2024-03-02T01:19:32;42.03;;;17.15;;
84877;SDS011;75140;47.754;8.840;2024-03-02T01:21:58;43.67;;;17.17;;
84877;SDS011;75140;47.754;8.840;2024-03-02T01:24:23;35.30;;;17.63;;
84877;SDS011;75140;47.754;8.840;2024-03-02T01:26:48;40.13;;;16.33;;
84877;SDS011;75140;47.754;8.840;2024-03-02T01:29:14;34.20;;;15.10;;
84877;SDS011;75140;47.754;8.840;2024-03-02T01:31:39;40.10;;;15.13;;
84877;SDS011;75140;47.754;8.840;2024-03-02T01:34:07;67.55;;;18.40;;
84877;SDS011;75140;47.754;8.840;2024-03-02T01:36:32;43.28;;;19.10;;
84877;SDS011;75140;47.754;8.840;2024-03-02T01:38:58;49.13;;;17.23;;
84877;SDS011;75140;47.754;8.840;2024-03-02T01:41:23;73.83;;;18.77;;
84877;SDS011;75140;47.754;8.840;2024-03-02T01:43:48;51.87;;;17.47;;
84877;SDS011;75140;47.754;8.840;2024-03-02T01:46:14;35.45;;;16.08;;
84877;SDS011;75140;47.754;8.840;2024-03-02T01:48:39;39.40;;;15.53;;
84877;SDS011;75140;47.754;8.840;2024-03-02T01:51:04;48.00;;;16.50;;
84877;SDS011;75140;47.754;8.840;2024-03-02T01:53:31;41.33;;;16.20;;
84877;SDS011;75140;47.754;8.840;2024-03-02T01:55:57;69.93;;;18.17;;
84877;SDS011;75140;47.754;8.840;2024-03-02T01:58:22;86.50;;;19.37;;
84877;SDS011;75140;47.754;8.840;2024-03-02T02:00:48;73.72;;;19.95;;
84877;SDS011;75140;47.754;8.840;2024-03-02T02:03:13;76.77;;;18.93;;
84877;SDS011;75140;47.754;8.840;2024-03-02T02:05:38;73.00;;;20.10;;
84877;SDS011;75140;47.754;8.840;2024-03-02T02:08:04;93.77;;;19.33;;
84877;SDS011;75140;47.754;8.840;2024-03-02T02:10:29;56.92;;;16.17;;
84877;SDS011;75140;47.754;8.840;2024-03-02T02:12:55;55.25;;;18.75;;
84877;SDS011;75140;47.754;8.840;2024-03-02T02:15:30;81.90;;;20.42;;
84877;SDS011;75140;47.754;8.840;2024-03-02T02:17:56;67.65;;;18.45;;
84877;SDS011;75140;47.754;8.840;2024-03-02T02:20:22;66.88;;;19.38;;
84877;SDS011;75140;47.754;8.840;2024-03-02T02:23:02;104.05;;;19.33;;
84877;SDS011;75140;47.754;8.840;2024-03-02T02:25:28;67.53;;;17.00;;
84877;SDS011;75140;47.754;8.840;2024-03-02T02:27:54;68.70;;;16.85;;
84877;SDS011;75140;47.754;8.840;2024-03-02T02:30:27;66.63;;;16.70;;
84877;SDS011;75140;47.754;8.840;2024-03-02T02:32:54;101.32;;;18.55;;
84877;SDS011;75140;47.754;8.840;2024-03-02T02:35:20;86.75;;;18.00;;
84877;SDS011;75140;47.754;8.840;2024-03-02T02:37:46;56.97;;;18.55;;
84877;SDS011;75140;47.754;8.840;2024-03-02T02:40:13;100.75;;;18.40;;
84877;SDS011;75140;47.754;8.840;2024-03-02T02:42:39;82.30;;;17.55;;
84877;SDS011;75140;47.754;8.840;2024-03-02T02:45:07;123.15;;;17.90;;
84877;SDS011;75140;47.754;8.840;2024-03-02T02:47:33;103.90;;;19.55;;
84877;SDS011;75140;47.754;8.840;2024-03-02T02:50:00;120.40;;;19.13;;
84877;SDS011;75140;47.754;8.840;2024-03-02T02:52:32;108.00;;;17.33;;
84877;SDS011;75140;47.754;8.840;2024-03-02T02:54:58;108.72;;;18.88;;
84877;SDS011;75140;47.754;8.840;2024-03-02T02:57:24;111.70;;;19.70;;
84877;SDS011;75140;47.754;8.840;2024-03-02T02:59:50;105.53;;;18.60;;
84877;SDS011;75140;47.754;8.840;2024-03-02T03:02:15;123.03;;;17.90;;
84877;SDS011;75140;47.754;8.840;2024-03-02T03:04:40;85.37;;;16.53;;
84877;SDS011;75140;47.754;8.840;2024-03-02T03:07:05;123.30;;;17.73;;
84877;SDS011;75140;47.754;8.840;2024-03-02T03:09:31;55.03;;;15.67;;
84877;SDS011;75140;47.754;8.840;2024-03-02T03:11:57;59.50;;;17.05;;
84877;SDS011;75140;47.754;8.840;2024-03-02T03:14:22;82.70;;;17.53;;
84877;SDS011;75140;47.754;8.840;2024-03-02T03:16:47;67.68;;;17.30;;
84877;SDS011;75140;47.754;8.840;2024-03-02T03:19:13;40.80;;;15.88;;
84877;SDS011;75140;47.754;8.840;2024-03-02T03:21:39;59.97;;;16.25;;
84877;SDS011;75140;47.754;8.840;2024-03-02T03:24:05;77.28;;;17.67;;
84877;SDS011;75140;47.754;8.840;2024-03-02T03:26:31;66.35;;;14.60;;
84877;SDS011;75140;47.754;8.840;2024-03-02T03:28:56;79.93;;;15.67;;
84877;SDS011;75140;47.754;8.840;2024-03-02T03:31:23;57.05;;;14.82;;
84877;SDS011;75140;47.754;8.840;2024-03-02T03:33:48;94.57;;;15.00;;
84877;SDS011;75140;47.754;8.840;2024-03-02T03:36:13;42.50;;;13.33;;
84877;SDS011;75140;47.754;8.840;2024-03-02T03:38:39;35.30;;;14.03;;
84877;SDS011;75140;47.754;8.840;2024-03-02T03:41:04;40.13;;;14.43;;
84877;SDS011;75140;47.754;8.840;2024-03-02T03:43:29;73.27;;;14.63;;
84877;SDS011;75140;47.754;8.840;2024-03-02T03:45:54;68.67;;;15.77;;
84877;SDS011;75140;47.754;8.840;2024-03-02T03:48:20;66.03;;;16.13;;
84877;SDS011;75140;47.754;8.840;2024-03-02T03:50:45;53.83;;;14.57;;
84877;SDS011;75140;47.754;8.840;2024-03-02T03:53:11;112.17;;;15.63;;
84877;SDS011;75140;47.754;8.840;2024-03-02T03:55:36;83.97;;;16.42;;
84877;SDS011;75140;47.754;8.840;2024-03-02T03:58:01;71.63;;;16.20;;
84877;SDS011;75140;47.754;8.840;2024-03-02T04:00:27;48.13;;;14.40;;
84877;SDS011;75140;47.754;8.840;2024-03-02T04:02:52;52.97;;;15.43;;
84877;SDS011;75140;47.754;8.840;2024-03-02T04:05:17;58.33;;;14.87;;
84877;SDS011;75140;47.754;8.840;2024-03-02T04:07:43;75.17;;;14.97;;
84877;SDS011;75140;47.754;8.840;2024-03-02T04:10:09;62.13;;;15.67;;
84877;SDS011;75140;47.754;8.840;2024-03-02T04:12:38;99.43;;;16.58;;
84877;SDS011;75140;47.754;8.840;2024-03-02T04:15:06;72.65;;;15.18;;
84877;SDS011;75140;47.754;8.840;2024-03-02T04:17:32;67.20;;;16.10;;
84877;SDS011;75140;47.754;8.840;2024-03-02T04:19:58;70.32;;;18.13;;
84877;SDS011;75140;47.754;8.840;2024-03-02T04:22:24;107.63;;;17.48;;
84877;SDS011;75140;47.754;8.840;2024-03-02T04:24:50;59.05;;;15.07;;
84877;SDS011;75140;47.754;8.840;2024-03-02T04:27:15;93.53;;;17.33;;
84877;SDS011;75140;47.754;8.840;2024-03-02T04:29:41;88.50;;;18.67;;
84877;SDS011;75140;47.754;8.840;2024-03-02T04:32:06;97.27;;;18.33;;
84877;SDS011;75140;47.754;8.840;2024-03-02T04:34:32;98.22;;;17.73;;
84877;SDS011;75140;47.754;8.840;2024-03-02T04:36:57;80.63;;;17.47;;
84877;SDS011;75140;47.754;8.840;2024-03-02T04:39:22;50.93;;;17.30;;
84877;SDS011;75140;47.754;8.840;2024-03-02T04:41:48;70.73;;;18.37;;
84877;SDS011;75140;47.754;8.840;2024-03-02T04:44:13;83.13;;;18.90;;
84877;SDS011;75140;47.754;8.840;2024-03-02T04:46:38;79.77;;;17.53;;
84877;SDS011;75140;47.754;8.840;2024-03-02T04:49:03;59.47;;;15.97;;
84877;SDS011;75140;47.754;8.840;2024-03-02T04:51:29;100.50;;;17.25;;
84877;SDS011;75140;47.754;8.840;2024-03-02T04:53:55;68.53;;;15.37;;
84877;SDS011;75140;47.754;8.840;2024-03-02T04:56:20;59.90;;;15.90;;
84877;SDS011;75140;47.754;8.840;2024-03-02T04:58:51;48.55;;;16.63;;
84877;SDS011;75140;47.754;8.840;2024-03-02T05:01:16;65.47;;;16.80;;
84877;SDS011;75140;47.754;8.840;2024-03-02T05:03:42;66.07;;;15.85;;
84877;SDS011;75140;47.754;8.840;2024-03-02T05:06:07;42.05;;;13.45;;
84877;SDS011;75140;47.754;8.840;2024-03-02T05:08:33;80.43;;;14.90;;
84877;SDS011;75140;47.754;8.840;2024-03-02T05:10:59;48.70;;;13.90;;
84877;SDS011;75140;47.754;8.840;2024-03-02T05:13:44;105.47;;;14.55;;
84877;SDS011;75140;47.754;8.840;2024-03-02T05:16:09;54.10;;;14.30;;
84877;SDS011;75140;47.754;8.840;2024-03-02T05:18:35;66.77;;;13.87;;
84877;SDS011;75140;47.754;8.840;2024-03-02T05:21:03;71.32;;;13.65;;
84877;SDS011;75140;47.754;8.840;2024-03-02T05:23:28;64.40;;;14.82;;
84877;SDS011;75140;47.754;8.840;2024-03-02T05:25:54;58.27;;;13.27;;
84877;SDS011;75140;47.754;8.840;2024-03-02T05:28:19;93.13;;;15.40;;
84877;SDS011;75140;47.754;8.840;2024-03-02T05:30:44;31.60;;;12.07;;
84877;SDS011;75140;47.754;8.840;2024-03-02T05:33:10;38.23;;;11.80;;
84877;SDS011;75140;47.754;8.840;2024-03-02T05:35:35;51.28;;;12.13;;
84877;SDS011;75140;47.754;8.840;2024-03-02T05:38:00;57.95;;;15.32;;
84877;SDS011;75140;47.754;8.840;2024-03-02T05:40:26;61.67;;;12.07;;
84877;SDS011;75140;47.754;8.840;2024-03-02T05:42:51;20.53;;;10.87;;
84877;SDS011;75140;47.754;8.840;2024-03-02T05:45:16;49.78;;;13.77;;
84877;SDS011;75140;47.754;8.840;2024-03-02T05:47:42;50.03;;;13.07;;
84877;SDS011;75140;47.754;8.840;2024-03-02T05:50:07;39.53;;;12.10;;
84877;SDS011;75140;47.754;8.840;2024-03-02T05:52:33;44.50;;;13.77;;
84877;SDS011;75140;47.754;8.840;2024-03-02T05:54:58;45.10;;;13.13;;
84877;SDS011;75140;47.754;8.840;2024-03-02T05:57:23;53.10;;;13.77;;
84877;SDS011;75140;47.754;8.840;2024-03-02T06:00:04;33.70;;;13.45;;
84877;SDS011;75140;47.754;8.840;2024-03-02T06:02:33;52.75;;;13.60;;
84877;SDS011;75140;47.754;8.840;2024-03-02T06:05:00;73.20;;;14.93;;
84877;SDS011;75140;47.754;8.840;2024-03-02T06:07:25;46.85;;;14.18;;
84877;SDS011;75140;47.754;8.840;2024-03-02T06:09:51;101.60;;;14.23;;
84877;SDS011;75140;47.754;8.840;2024-03-02T06:12:17;54.63;;;12.93;;
84877;SDS011;75140;47.754;8.840;2024-03-02T06:14:43;49.13;;;14.68;;
84877;SDS011;75140;47.754;8.840;2024-03-02T06:17:09;39.17;;;13.30;;
84877;SDS011;75140;47.754;8.840;2024-03-02T06:19:34;74.07;;;15.47;;
84877;SDS011;75140;47.754;8.840;2024-03-02T06:21:59;63.53;;;15.77;;
84877;SDS011;75140;47.754;8.840;2024-03-02T06:24:24;59.13;;;14.97;;
84877;SDS011;75140;47.754;8.840;2024-03-02T06:26:51;45.85;;;14.02;;
84877;SDS011;75140;47.754;8.840;2024-03-02T06:29:17;45.55;;;14.68;;
84877;SDS011;75140;47.754;8.840;2024-03-02T06:31:42;48.88;;;14.85;;
84877;SDS011;75140;47.754;8.840;2024-03-02T06:34:07;60.70;;;14.37;;
84877;SDS011;75140;47.754;8.840;2024-03-02T06:36:33;69.25;;;15.05;;
84877;SDS011;75140;47.754;8.840;2024-03-02T06:38:59;38.33;;;14.48;;
84877;SDS011;75140;47.754;8.840;2024-03-02T06:41:24;44.00;;;12.88;;
84877;SDS011;75140;47.754;8.840;2024-03-02T06:43:51;39.08;;;15.02;;
84877;SDS011;75140;47.754;8.840;2024-03-02T06:46:24;42.72;;;14.38;;
84877;SDS011;75140;47.754;8.840;2024-03-02T06:48:49;37.88;;;13.65;;
84877;SDS011;75140;47.754;8.840;2024-03-02T06:51:15;39.27;;;13.13;;
84877;SDS011;75140;47.754;8.840;2024-03-02T06:53:40;44.67;;;14.45;;
84877;SDS011;75140;47.754;8.840;2024-03-02T06:56:06;30.67;;;12.70;;
84877;SDS011;75140;47.754;8.840;2024-03-02T06:58:32;37.45;;;13.68;;
84877;SDS011;75140;47.754;8.840;2024-03-02T07:00:58;42.83;;;12.77;;
84877;SDS011;75140;47.754;8.840;2024-03-02T07:03:25;29.55;;;11.35;;
84877;SDS011;75140;47.754;8.840;2024-03-02T07:05:50;32.05;;;12.00;;
84877;SDS011;75140;47.754;8.840;2024-03-02T07:08:16;51.60;;;13.03;;
84877;SDS011;75140;47.754;8.840;2024-03-02T07:10:41;28.00;;;10.93;;
84877;SDS011;75140;47.754;8.840;2024-03-02T07:13:06;40.30;;;12.65;;
84877;SDS011;75140;47.754;8.840;2024-03-02T07:15:32;42.77;;;13.17;;
84877;SDS011;75140;47.754;8.840;2024-03-02T07:18:29;28.70;;;12.20;;
84877;SDS011;75140;47.754;8.840;2024-03-02T07:20:56;30.17;;;12.35;;
84877;SDS011;75140;47.754;8.840;2024-03-02T07:23:24;30.02;;;11.00;;
84877;SDS011;75140;47.754;8.840;2024-03-02T07:25:52;25.45;;;10.88;;
84877;SDS011;75140;47.754;8.840;2024-03-02T07:28:19;21.90;;;10.52;;
84877;SDS011;75140;47.754;8.840;2024-03-02T07:30:45;23.60;;;9.82;;
84877;SDS011;75140;47.754;8.840;2024-03-02T07:33:11;18.55;;;9.32;;
84877;SDS011;75140;47.754;8.840;2024-03-02T07:35:36;20.37;;;9.53;;
84877;SDS011;75140;47.754;8.840;2024-03-02T07:38:01;21.07;;;9.53;;
84877;SDS011;75140;47.754;8.840;2024-03-02T07:40:27;24.57;;;9.77;;
84877;SDS011;75140;47.754;8.840;2024-03-02T07:42:52;33.92;;;11.02;;
84877;SDS011;75140;47.754;8.840;2024-03-02T07:45:17;21.95;;;10.48;;
84877;SDS011;75140;47.754;8.840;2024-03-02T07:47:43;28.00;;;10.87;;
84877;SDS011;75140;47.754;8.840;2024-03-02T07:50:08;22.37;;;11.13;;
84877;SDS011;75140;47.754;8.840;2024-03-02T07:52:34;28.25;;;10.20;;
84877;SDS011;75140;47.754;8.840;2024-03-02T07:54:59;20.67;;;10.00;;
84877;SDS011;75140;47.754;8.840;2024-03-02T07:57:25;22.00;;;9.65;;
84877;SDS011;75140;47.754;8.840;2024-03-02T07:59:50;21.30;;;10.95;;
84877;SDS011;75140;47.754;8.840;2024-03-02T08:02:16;21.10;;;9.50;;
84877;SDS011;75140;47.754;8.840;2024-03-02T08:04:42;19.35;;;10.07;;
84877;SDS011;75140;47.754;8.840;2024-03-02T08:07:07;20.63;;;10.75;;
84877;SDS011;75140;47.754;8.840;2024-03-02T08:09:34;21.15;;;9.35;;
84877;SDS011;75140;47.754;8.840;2024-03-02T08:11:59;18.67;;;9.10;;
84877;SDS011;75140;47.754;8.840;2024-03-02T08:14:25;22.27;;;10.30;;
84877;SDS011;75140;47.754;8.840;2024-03-02T08:16:50;22.67;;;9.80;;
84877;SDS011;75140;47.754;8.840;2024-03-02T08:19:15;20.27;;;10.50;;
84877;SDS011;75140;47.754;8.840;2024-03-02T08:21:42;19.85;;;10.07;;
84877;SDS011;75140;47.754;8.840;2024-03-02T08:24:08;22.05;;;10.65;;
84877;SDS011;75140;47.754;8.840;2024-03-02T08:26:33;18.40;;;10.13;;
84877;SDS011;75140;47.754;8.840;2024-03-02T08:29:00;19.52;;;10.18;;
84877;SDS011;75140;47.754;8.840;2024-03-02T08:31:27;19.25;;;9.52;;
84877;SDS011;75140;47.754;8.840;2024-03-02T08:33:52;20.20;;;9.27;;
84877;SDS011;75140;47.754;8.840;2024-03-02T08:36:18;19.00;;;9.32;;
84877;SDS011;75140;47.754;8.840;2024-03-02T08:38:44;19.25;;;9.77;;
84877;SDS011;75140;47.754;8.840;2024-03-02T08:41:10;19.02;;;9.25;;
84877;SDS011;75140;47.754;8.840;2024-03-02T08:43:38;18.00;;;9.60;;
84877;SDS011;75140;47.754;8.840;2024-03-02T08:46:03;15.90;;;8.73;;
84877;SDS011;75140;47.754;8.840;2024-03-02T08:48:29;18.30;;;10.27;;
84877;SDS011;75140;47.754;8.840;2024-03-02T08:50:54;20.53;;;10.20;;
84877;SDS011;75140;47.754;8.840;2024-03-02T08:53:20;18.43;;;10.10;;
84877;SDS011;75140;47.754;8.840;2024-03-02T08:55:48;15.37;;;9.03;;
84877;SDS011;75140;47.754;8.840;2024-03-02T08:58:14;17.55;;;11.00;;
84877;SDS011;75140;47.754;8.840;2024-03-02T09:00:39;27.10;;;12.68;;
84877;SDS011;75140;47.754;8.840;2024-03-02T09:03:05;18.90;;;11.13;;
84877;SDS011;75140;47.754;8.840;2024-03-02T09:05:31;20.52;;;11.50;;
84877;SDS011;75140;47.754;8.840;2024-03-02T09:07:56;16.97;;;10.63;;
84877;SDS011;75140;47.754;8.840;2024-03-02T09:10:21;18.40;;;10.30;;
84877;SDS011;75140;47.754;8.840;2024-03-02T09:12:47;18.37;;;9.37;;
84877;SDS011;75140;47.754;8.840;2024-03-02T09:15:12;18.13;;;9.75;;
84877;SDS011;75140;47.754;8.840;2024-03-02T09:17:38;20.88;;;10.57;;
84877;SDS011;75140;47.754;8.840;2024-03-02T09:20:04;22.27;;;12.33;;
84877;SDS011;75140;47.754;8.840;2024-03-02T09:22:30;19.95;;;10.98;;
84877;SDS011;75140;47.754;8.840;2024-03-02T09:24:55;23.13;;;12.43;;
84877;SDS011;75140;47.754;8.840;2024-03-02T09:27:21;19.90;;;11.25;;
84877;SDS011;75140;47.754;8.840;2024-03-02T09:29:47;20.42;;;11.90;;
84877;SDS011;75140;47.754;8.840;2024-03-02T09:32:13;20.63;;;11.00;;
84877;SDS011;75140;47.754;8.840;2024-03-02T09:34:39;15.55;;;8.52;;
84877;SDS011;75140;47.754;8.840;2024-03-02T09:37:04;17.27;;;8.37;;
84877;SDS011;75140;47.754;8.840;2024-03-02T09:39:30;17.17;;;9.87;;
84877;SDS011;75140;47.754;8.840;2024-03-02T09:41:55;21.33;;;11.32;;
84877;SDS011;75140;47.754;8.840;2024-03-02T09:44:21;22.17;;;10.57;;
84877;SDS011;75140;47.754;8.840;2024-03-02T09:46:50;23.85;;;12.13;;
84877;SDS011;75140;47.754;8.840;2024-03-02T09:49:16;20.30;;;10.60;;
84877;SDS011;75140;47.754;8.840;2024-03-02T09:51:46;21.75;;;10.73;;
84877;SDS011;75140;47.754;8.840;2024-03-02T09:54:12;20.92;;;10.82;;
84877;SDS011;75140;47.754;8.840;2024-03-02T09:56:38;15.27;;;9.50;;
84877;SDS011;75140;47.754;8.840;2024-03-02T09:59:04;20.40;;;9.90;;
84877;SDS011;75140;47.754;8.840;2024-03-02T10:01:30;29.00;;;11.13;;
84877;SDS011;75140;47.754;8.840;2024-03-02T10:03:56;26.55;;;14.40;;
84877;SDS011;75140;47.754;8.840;2024-03-02T10:06:25;22.92;;;13.05;;
84877;SDS011;75140;47.754;8.840;2024-03-02T10:08:51;21.13;;;11.75;;
84877;SDS011;75140;47.754;8.840;2024-03-02T10:11:31;19.65;;;11.80;;
84877;SDS011;75140;47.754;8.840;2024-03-02T10:14:10;19.88;;;10.95;;
84877;SDS011;75140;47.754;8.840;2024-03-02T10:16:37;22.10;;;11.90;;
84877;SDS011;75140;47.754;8.840;2024-03-02T10:22:00;14.68;;;9.43;;
84877;SDS011;75140;47.754;8.840;2024-03-02T10:24:28;17.10;;;9.95;;
84877;SDS011;75140;47.754;8.840;2024-03-02T10:27:02;30.55;;;13.38;;
84877;SDS011;75140;47.754;8.840;2024-03-02T10:29:31;30.55;;;16.08;;
84877;SDS011;75140;47.754;8.840;2024-03-02T10:31:56;26.75;;;16.40;;
84877;SDS011;75140;47.754;8.840;2024-03-02T10:34:24;27.45;;;17.38;;
84877;SDS011;75140;47.754;8.840;2024-03-02T10:36:49;32.53;;;17.70;;
84877;SDS011;75140;47.754;8.840;2024-03-02T10:39:15;23.10;;;12.27;;
84877;SDS011;75140;47.754;8.840;2024-03-02T10:41:40;21.33;;;11.93;;
84877;SDS011;75140;47.754;8.840;2024-03-02T10:44:06;19.38;;;10.93;;
84877;SDS011;75140;47.754;8.840;2024-03-02T10:46:34;18.38;;;10.95;;
84877;SDS011;75140;47.754;8.840;2024-03-02T10:49:01;17.80;;;10.88;;
84877;SDS011;75140;47.754;8.840;2024-03-02T10:51:30;21.08;;;13.05;;
84877;SDS011;75140;47.754;8.840;2024-03-02T10:53:57;20.65;;;11.32;;
84877;SDS011;75140;47.754;8.840;2024-03-02T10:56:38;19.00;;;10.20;;
84877;SDS011;75140;47.754;8.840;2024-03-02T11:01:33;17.00;;;9.80;;
84877;SDS011;75140;47.754;8.840;2024-03-02T11:03:59;17.58;;;11.13;;
84877;SDS011;75140;47.754;8.840;2024-03-02T11:06:28;16.85;;;9.57;;
84877;SDS011;75140;47.754;8.840;2024-03-02T11:08:54;15.13;;;8.45;;
84877;SDS011;75140;47.754;8.840;2024-03-02T11:11:27;20.98;;;9.85;;
84877;SDS011;75140;47.754;8.840;2024-03-02T11:13:56;12.43;;;8.15;;
84877;SDS011;75140;47.754;8.840;2024-03-02T11:16:33;11.50;;;8.00;;
84877;SDS011;75140;47.754;8.840;2024-03-02T11:19:04;12.27;;;8.05;;
84877;SDS011;75140;47.754;8.840;2024-03-02T11:21:32;11.05;;;6.97;;
84877;SDS011;75140;47.754;8.840;2024-03-02T11:23:59;11.38;;;7.45;;
84877;SDS011;75140;47.754;8.840;2024-03-02T11:26:24;11.65;;;7.90;;
84877;SDS011;75140;47.754;8.840;2024-03-02T11:28:50;9.17;;;6.93;;
84877;SDS011;75140;47.754;8.840;2024-03-02T11:31:15;11.70;;;6.90;;
84877;SDS011;75140;47.754;8.840;2024-03-02T11:33:41;8.83;;;6.73;;
84877;SDS011;75140;47.754;8.840;2024-03-02T11:36:06;9.45;;;7.15;;
84877;SDS011;75140;47.754;8.840;2024-03-02T11:38:33;8.35;;;6.60;;
84877;SDS011;75140;47.754;8.840;2024-03-02T11:41:03;12.50;;;6.15;;
84877;SDS011;75140;47.754;8.840;2024-03-02T11:43:33;19.73;;;7.38;;
84877;SDS011;75140;47.754;8.840;2024-03-02T11:46:05;14.13;;;6.05;;
84877;SDS011;75140;47.754;8.840;2024-03-02T11:48:34;8.20;;;5.93;;
84877;SDS011;75140;47.754;8.840;2024-03-02T11:51:01;8.35;;;5.50;;
84877;SDS011;75140;47.754;8.840;2024-03-02T11:53:27;7.38;;;5.85;;
84877;SDS011;75140;47.754;8.840;2024-03-02T11:55:56;7.60;;;5.50;;
84877;SDS011;75140;47.754;8.840;2024-03-02T11:58:23;7.43;;;5.47;;
84877;SDS011;75140;47.754;8.840;2024-03-02T12:00:55;7.50;;;5.57;;
84877;SDS011;75140;47.754;8.840;2024-03-02T12:03:22;7.55;;;5.63;;
84877;SDS011;75140;47.754;8.840;2024-03-02T12:05:57;9.90;;;5.63;;
84877;SDS011;75140;47.754;8.840;2024-03-02T12:08:22;8.13;;;5.55;;
84877;SDS011;75140;47.754;8.840;2024-03-02T12:11:01;6.93;;;5.30;;
84877;SDS011;75140;47.754;8.840;2024-03-02T12:13:27;39.85;;;7.28;;
84877;SDS011;75140;47.754;8.840;2024-03-02T12:15:53;7.20;;;4.60;;
84877;SDS011;75140;47.754;8.840;2024-03-02T12:18:23;10.35;;;5.47;;
84877;SDS011;75140;47.754;8.840;2024-03-02T12:20:49;6.85;;;4.93;;
84877;SDS011;75140;47.754;8.840;2024-03-02T12:23:17;8.48;;;4.68;;
84877;SDS011;75140;47.754;8.840;2024-03-02T12:25:43;6.88;;;4.63;;
84877;SDS011;75140;47.754;8.840;2024-03-02T12:28:09;12.60;;;4.95;;
84877;SDS011;75140;47.754;8.840;2024-03-02T12:30:35;6.47;;;4.25;;
84877;SDS011;75140;47.754;8.840;2024-03-02T12:33:01;6.13;;;3.92;;
84877;SDS011;75140;47.754;8.840;2024-03-02T12:35:26;5.68;;;3.78;;
84877;SDS011;75140;47.754;8.840;2024-03-02T12:37:52;5.53;;;3.47;;
84877;SDS011;75140;47.754;8.840;2024-03-02T12:40:19;5.25;;;3.60;;
84877;SDS011;75140;47.754;8.840;2024-03-02T12:42:47;6.50;;;3.42;;
84877;SDS011;75140;47.754;8.840;2024-03-02T12:45:13;4.70;;;3.28;;
84877;SDS011;75140;47.754;8.840;2024-03-02T12:47:39;5.25;;;3.80;;
84877;SDS011;75140;47.754;8.840;2024-03-02T12:50:06;6.05;;;4.15;;
84877;SDS011;75140;47.754;8.840;2024-03-02T12:52:32;4.78;;;3.55;;
84877;SDS011;75140;47.754;8.840;2024-03-02T12:55:02;6.63;;;4.43;;
84877;SDS011;75140;47.754;8.840;2024-03-02T12:57:30;5.47;;;3.30;;
84877;SDS011;75140;47.754;8.840;2024-03-02T13:00:00;7.70;;;3.60;;
84877;SDS011;75140;47.754;8.840;2024-03-02T13:02:28;5.72;;;2.90;;
84877;SDS011;75140;47.754;8.840;2024-03-02T13:04:55;5.25;;;3.17;;
84877;SDS011;75140;47.754;8.840;2024-03-02T13:07:23;5.25;;;3.75;;
84877;SDS011;75140;47.754;8.840;2024-03-02T13:09:50;9.02;;;3.45;;
84877;SDS011;75140;47.754;8.840;2024-03-02T13:12:16;10.15;;;4.05;;
84877;SDS011;75140;47.754;8.840;2024-03-02T13:14:42;5.60;;;2.53;;
84877;SDS011;75140;47.754;8.840;2024-03-02T13:17:08;3.00;;;2.30;;
84877;SDS011;75140;47.754;8.840;2024-03-02T13:19:34;3.67;;;2.00;;
84877;SDS011;75140;47.754;8.840;2024-03-02T13:22:00;3.33;;;2.30;;
84877;SDS011;75140;47.754;8.840;2024-03-02T13:24:27;3.35;;;2.05;;
84877;SDS011;75140;47.754;8.840;2024-03-02T13:26:55;3.55;;;2.70;;
84877;SDS011;75140;47.754;8.840;2024-03-02T13:29:23;4.18;;;2.78;;
84877;SDS011;75140;47.754;8.840;2024-03-02T13:31:48;4.43;;;3.13;;
84877;SDS011;75140;47.754;8.840;2024-03-02T13:34:14;3.63;;;3.03;;
84877;SDS011;75140;47.754;8.840;2024-03-02T13:36:39;4.53;;;3.37;;
84877;SDS011;75140;47.754;8.840;2024-03-02T13:39:05;5.63;;;3.13;;
84877;SDS011;75140;47.754;8.840;2024-03-02T13:41:31;7.95;;;5.53;;
84877;SDS011;75140;47.754;8.840;2024-03-02T13:43:57;5.55;;;4.03;;
84877;SDS011;75140;47.754;8.840;2024-03-02T13:46:26;9.15;;;5.45;;
84877;SDS011;75140;47.754;8.840;2024-03-02T13:48:51;13.05;;;7.28;;
84877;SDS011;75140;47.754;8.840;2024-03-02T13:51:17;6.32;;;4.20;;
84877;SDS011;75140;47.754;8.840;2024-03-02T13:53:42;11.25;;;6.95;;
84877;SDS011;75140;47.754;8.840;2024-03-02T13:56:07;7.00;;;5.10;;
84877;SDS011;75140;47.754;8.840;2024-03-02T13:58:33;5.72;;;3.72;;
84877;SDS011;75140;47.754;8.840;2024-03-02T14:00:58;4.88;;;3.33;;
84877;SDS011;75140;47.754;8.840;2024-03-02T14:03:24;7.28;;;4.18;;
84877;SDS011;75140;47.754;8.840;2024-03-02T14:05:52;6.63;;;4.75;;
84877;SDS011;75140;47.754;8.840;2024-03-02T14:08:18;6.35;;;3.92;;
84877;SDS011;75140;47.754;8.840;2024-03-02T14:10:43;14.13;;;4.82;;
84877;SDS011;75140;47.754;8.840;2024-03-02T14:13:09;5.45;;;3.83;;
84877;SDS011;75140;47.754;8.840;2024-03-02T14:15:34;10.57;;;4.00;;
84877;SDS011;75140;47.754;8.840;2024-03-02T14:18:03;12.45;;;3.72;;
84877;SDS011;75140;47.754;8.840;2024-03-02T14:20:29;6.78;;;3.30;;
84877;SDS011;75140;47.754;8.840;2024-03-02T14:22:54;6.75;;;3.15;;
84877;SDS011;75140;47.754;8.840;2024-03-02T14:25:20;3.37;;;1.83;;
84877;SDS011;75140;47.754;8.840;2024-03-02T14:27:45;8.83;;;2.33;;
84877;SDS011;75140;47.754;8.840;2024-03-02T14:30:12;3.80;;;2.03;;
84877;SDS011;75140;47.754;8.840;2024-03-02T14:32:38;4.22;;;2.55;;
84877;SDS011;75140;47.754;8.840;2024-03-02T14:35:03;8.40;;;3.60;;